createdAt,value
2019-03-10T00:00:36.175Z,4.43
2019-03-10T00:03:06.402Z,5.10
2019-03-10T00:05:36.366Z,5.20
2019-03-10T00:08:08.048Z,5.90
2019-03-10T00:10:37.799Z,5.13
2019-03-10T00:13:07.706Z,5.40
2019-03-10T00:15:37.590Z,5.37
2019-03-10T00:18:07.369Z,6.37
2019-03-10T00:20:37.014Z,5.43
2019-03-10T00:23:07.206Z,6.33
2019-03-10T00:25:36.956Z,4.87
2019-03-10T00:28:06.819Z,6.00
2019-03-10T00:30:36.810Z,5.80
2019-03-10T00:33:06.635Z,5.30
2019-03-10T00:35:36.491Z,5.70
2019-03-10T00:38:06.345Z,5.67
2019-03-10T00:41:00.026Z,5.70
2019-03-10T00:43:57.131Z,5.13
2019-03-10T00:47:21.377Z,5.47
2019-03-10T00:50:11.017Z,5.07
2019-03-10T00:52:45.741Z,5.20
2019-03-10T00:55:15.751Z,5.77
2019-03-10T00:57:45.493Z,6.30
2019-03-10T01:00:18.630Z,6.27
2019-03-10T01:02:48.493Z,5.60
2019-03-10T01:05:19.019Z,5.70
2019-03-10T01:07:48.996Z,5.53
2019-03-10T01:10:18.776Z,6.40
2019-03-10T01:12:49.147Z,6.20
2019-03-10T01:15:19.172Z,4.87
2019-03-10T01:17:51.546Z,6.70
2019-03-10T01:20:21.442Z,5.53
2019-03-10T01:22:51.212Z,6.03
2019-03-10T01:25:20.924Z,6.27
2019-03-10T01:27:50.690Z,5.90
2019-03-10T01:30:22.027Z,6.37
2019-03-10T01:33:20.325Z,6.33
2019-03-10T01:35:50.195Z,5.40
2019-03-10T01:38:20.080Z,5.80
2019-03-10T01:40:49.823Z,6.27
2019-03-10T01:43:19.529Z,6.23
2019-03-10T01:45:49.274Z,6.83
2019-03-10T01:48:19.121Z,6.10
2019-03-10T01:50:48.765Z,7.23
2019-03-10T01:53:25.653Z,6.07
2019-03-10T01:55:50.059Z,7.17
2019-03-10T01:58:19.775Z,6.67
2019-03-10T02:00:49.478Z,6.60
2019-03-10T02:03:19.184Z,6.10
2019-03-10T02:05:48.897Z,5.83
2019-03-10T02:08:18.620Z,6.73
2019-03-10T02:10:48.273Z,6.57
2019-03-10T02:13:17.967Z,6.60
2019-03-10T02:15:47.658Z,7.00
2019-03-10T02:18:17.366Z,6.17
2019-03-10T02:20:47.072Z,5.90
2019-03-10T02:23:16.774Z,6.60
2019-03-10T02:25:46.451Z,5.90
2019-03-10T02:28:16.140Z,6.07
2019-03-10T02:30:45.955Z,5.93
2019-03-10T02:33:15.633Z,6.77
2019-03-10T02:35:45.405Z,6.30
2019-03-10T02:38:15.114Z,6.07
2019-03-10T02:40:44.822Z,6.97
2019-03-10T02:43:14.584Z,5.30
2019-03-10T02:45:44.374Z,6.20
2019-03-10T02:48:14.138Z,6.80
2019-03-10T02:50:43.867Z,6.40
2019-03-10T02:53:13.577Z,6.60
2019-03-10T02:55:43.239Z,6.13
2019-03-10T02:58:13.017Z,6.40
2019-03-10T03:00:42.735Z,6.53
2019-03-10T03:03:12.495Z,6.47
2019-03-10T03:05:42.210Z,5.47
2019-03-10T03:08:11.990Z,6.47
2019-03-10T03:10:41.782Z,5.90
2019-03-10T03:13:11.472Z,5.60
2019-03-10T03:15:41.179Z,6.80
2019-03-10T03:18:10.889Z,7.43
2019-03-10T03:20:40.690Z,6.67
2019-03-10T03:23:10.333Z,7.10
2019-03-10T03:25:40.125Z,6.40
2019-03-10T03:28:09.861Z,5.90
2019-03-10T03:30:39.928Z,6.60
2019-03-10T03:33:09.687Z,6.80
2019-03-10T03:35:46.689Z,6.90
2019-03-10T03:38:20.379Z,5.63
2019-03-10T03:41:00.303Z,5.77
2019-03-10T03:43:30.078Z,5.43
2019-03-10T03:45:59.821Z,4.97
2019-03-10T03:48:29.836Z,5.27
2019-03-10T03:50:59.528Z,5.00
2019-03-10T03:53:29.287Z,5.10
2019-03-10T03:55:59.026Z,4.90
2019-03-10T03:58:28.699Z,5.63
2019-03-10T04:01:00.049Z,3.70
2019-03-10T04:03:29.758Z,4.50
2019-03-10T04:05:59.408Z,4.70
2019-03-10T04:08:29.172Z,3.93
2019-03-10T04:10:58.840Z,3.97
2019-03-10T04:13:28.554Z,4.00
2019-03-10T04:15:58.190Z,4.10
2019-03-10T04:18:27.921Z,3.37
2019-03-10T04:20:57.687Z,3.17
2019-03-10T04:23:27.396Z,3.77
2019-03-10T04:25:57.163Z,3.90
2019-03-10T04:28:26.814Z,3.90
2019-03-10T04:30:56.513Z,4.50
2019-03-10T04:33:26.227Z,3.90
2019-03-10T04:35:55.922Z,3.70
2019-03-10T04:38:25.661Z,3.73
2019-03-10T04:40:55.417Z,3.63
2019-03-10T04:43:25.799Z,3.47
2019-03-10T04:45:55.601Z,3.30
2019-03-10T04:48:25.232Z,3.23
2019-03-10T04:50:54.995Z,3.23
2019-03-10T04:53:24.672Z,3.13
2019-03-10T04:55:56.020Z,3.03
2019-03-10T04:58:26.357Z,3.80
2019-03-10T05:00:57.761Z,4.80
2019-03-10T05:03:28.795Z,4.90
2019-03-10T05:05:58.479Z,4.83
2019-03-10T05:08:28.147Z,4.13
2019-03-10T05:10:57.857Z,5.37
2019-03-10T05:13:27.524Z,3.70
2019-03-10T05:15:57.627Z,4.97
2019-03-10T05:18:27.322Z,4.57
2019-03-10T05:20:56.991Z,4.53
2019-03-10T05:23:32.562Z,4.67
2019-03-10T05:26:02.547Z,4.17
2019-03-10T05:28:35.326Z,5.07
2019-03-10T05:31:05.070Z,3.87
2019-03-10T05:33:34.821Z,4.07
2019-03-10T05:36:04.730Z,4.80
2019-03-10T05:38:34.446Z,4.60
2019-03-10T05:41:04.226Z,4.30
2019-03-10T05:43:33.928Z,4.57
2019-03-10T05:46:03.822Z,3.90
2019-03-10T05:48:33.625Z,4.43
2019-03-10T05:51:03.432Z,4.60
2019-03-10T05:53:33.127Z,3.70
2019-03-10T05:56:02.872Z,3.87
2019-03-10T05:58:32.594Z,4.27
2019-03-10T06:01:02.361Z,3.93
2019-03-10T06:03:32.140Z,3.93
2019-03-10T06:06:01.846Z,3.90
2019-03-10T06:08:32.644Z,4.20
2019-03-10T06:11:02.331Z,4.90
2019-03-10T06:13:31.987Z,3.70
2019-03-10T06:16:01.719Z,4.43
2019-03-10T06:18:31.396Z,3.90
2019-03-10T06:21:01.159Z,3.90
2019-03-10T06:23:30.835Z,3.90
2019-03-10T06:26:00.567Z,3.33
2019-03-10T06:28:30.309Z,3.67
2019-03-10T06:31:00.037Z,3.17
2019-03-10T06:33:29.738Z,3.00
2019-03-10T06:35:59.408Z,3.43
2019-03-10T06:38:29.176Z,18.40
2019-03-10T06:40:58.825Z,13.13
2019-03-10T06:43:28.707Z,21.53
2019-03-10T06:45:58.345Z,3.53
2019-03-10T06:48:28.040Z,3.47
2019-03-10T06:50:57.686Z,3.03
2019-03-10T06:53:27.516Z,3.00
2019-03-10T06:55:57.157Z,3.33
2019-03-10T06:58:26.799Z,2.70
2019-03-10T07:00:56.527Z,3.60
2019-03-10T07:03:26.263Z,3.10
2019-03-10T07:05:55.951Z,2.57
2019-03-10T07:08:25.612Z,3.00
2019-03-10T07:10:55.319Z,2.50
2019-03-10T07:13:25.033Z,2.43
2019-03-10T07:15:54.737Z,3.17
2019-03-10T07:18:24.395Z,2.37
2019-03-10T07:20:54.244Z,3.20
2019-03-10T07:23:23.965Z,2.80
2019-03-10T07:26:05.922Z,2.67
2019-03-10T07:28:38.315Z,2.40
2019-03-10T07:31:12.410Z,2.40
2019-03-10T07:34:00.438Z,2.30
2019-03-10T07:36:32.025Z,2.00
2019-03-10T07:39:13.929Z,2.47
2019-03-10T07:41:51.432Z,2.03
2019-03-10T07:44:34.758Z,2.40
2019-03-10T07:47:06.164Z,2.30
2019-03-10T07:49:37.467Z,2.33
2019-03-10T07:52:20.985Z,2.03
2019-03-10T07:54:53.182Z,2.33
2019-03-10T07:57:27.580Z,5.10
2019-03-10T07:59:58.876Z,2.83
2019-03-10T08:02:39.391Z,2.53
2019-03-10T08:05:25.789Z,2.10
2019-03-10T08:08:13.307Z,2.93
2019-03-10T08:10:42.865Z,2.07
2019-03-10T08:13:15.570Z,2.30
2019-03-10T08:16:01.831Z,2.70
2019-03-10T08:18:35.656Z,2.60
2019-03-10T08:21:23.550Z,2.27
2019-03-10T08:24:02.049Z,2.23
2019-03-10T08:26:36.556Z,2.43
2019-03-10T08:29:08.950Z,2.93
2019-03-10T08:31:38.437Z,2.30
2019-03-10T08:34:11.021Z,2.73
2019-03-10T08:36:44.785Z,2.43
2019-03-10T08:39:20.328Z,2.50
2019-03-10T08:41:58.737Z,2.30
2019-03-10T08:44:46.231Z,1.83
2019-03-10T08:47:21.387Z,2.23
2019-03-10T08:50:09.434Z,2.23
2019-03-10T08:52:46.301Z,2.53
2019-03-10T08:55:32.980Z,2.87
2019-03-10T08:58:04.267Z,2.23
2019-03-10T09:00:45.754Z,2.50
2019-03-10T09:03:17.019Z,2.10
2019-03-10T09:05:57.341Z,1.80
2019-03-10T09:08:32.733Z,2.23
2019-03-10T09:11:10.303Z,2.20
2019-03-10T09:13:57.404Z,2.10
2019-03-10T09:16:29.532Z,2.03
2019-03-10T09:19:01.786Z,2.20
2019-03-10T09:21:51.126Z,2.47
2019-03-10T09:24:20.536Z,2.10
2019-03-10T09:26:55.750Z,2.03
2019-03-10T09:29:36.903Z,2.00
2019-03-10T09:32:13.787Z,2.20
2019-03-10T09:34:55.167Z,2.70
2019-03-10T09:37:36.424Z,2.37
2019-03-10T09:40:12.614Z,2.90
2019-03-10T09:42:44.043Z,2.40
2019-03-10T09:45:27.387Z,2.60
2019-03-10T09:48:15.145Z,3.10
2019-03-10T09:50:46.415Z,2.97
2019-03-10T09:53:15.940Z,3.57
2019-03-10T09:55:49.880Z,4.33
2019-03-10T09:58:27.023Z,5.00
2019-03-10T10:01:02.517Z,5.23
2019-03-10T10:03:49.570Z,5.43
2019-03-10T10:06:27.875Z,5.70
2019-03-10T10:09:15.405Z,5.37
2019-03-10T10:11:49.882Z,6.40
2019-03-10T10:14:31.337Z,5.93
2019-03-10T10:17:05.397Z,6.97
2019-03-10T10:19:36.721Z,7.67
2019-03-10T10:22:11.078Z,5.93
2019-03-10T10:24:45.174Z,5.97
2019-03-10T10:27:28.797Z,4.70
2019-03-10T10:30:16.365Z,4.70
2019-03-10T10:32:53.466Z,3.50
2019-03-10T10:35:29.630Z,1.90
2019-03-10T10:37:59.225Z,1.90
2019-03-10T10:40:31.991Z,2.23
2019-03-10T10:43:06.224Z,2.03
2019-03-10T10:45:53.632Z,2.10
2019-03-10T10:48:25.023Z,2.00
2019-03-10T10:51:12.876Z,2.50
2019-03-10T10:53:44.226Z,1.70
2019-03-10T10:56:18.398Z,2.40
2019-03-10T10:59:07.595Z,2.47
2019-03-10T11:01:39.163Z,2.47
2019-03-10T11:04:13.398Z,2.23
2019-03-10T11:06:48.895Z,3.00
2019-03-10T11:09:20.309Z,2.93
2019-03-10T11:11:51.761Z,2.77
2019-03-10T11:14:29.129Z,3.00
2019-03-10T11:16:58.663Z,3.67
2019-03-10T11:19:30.044Z,3.03
2019-03-10T11:22:17.770Z,3.30
2019-03-10T11:24:51.559Z,3.10
2019-03-10T11:27:34.840Z,3.67
2019-03-10T11:30:08.810Z,2.50
2019-03-10T11:32:38.290Z,3.00
2019-03-10T11:35:27.347Z,3.27
2019-03-10T11:37:56.876Z,3.40
2019-03-10T11:40:44.396Z,3.53
2019-03-10T11:43:15.758Z,3.33
2019-03-10T11:45:56.125Z,4.20
2019-03-10T11:48:39.105Z,3.53
2019-03-10T11:51:13.368Z,4.10
2019-03-10T11:53:47.716Z,3.67
2019-03-10T11:56:28.167Z,3.30
2019-03-10T11:59:17.861Z,3.97
2019-03-10T12:01:51.982Z,3.80
2019-03-10T12:04:32.191Z,3.17
2019-03-10T12:07:19.737Z,4.03
2019-03-10T12:09:49.566Z,4.10
2019-03-10T12:12:19.450Z,4.10
2019-03-10T12:14:49.181Z,4.00
2019-03-10T12:17:18.840Z,4.13
2019-03-10T12:19:50.031Z,4.27
2019-03-10T12:22:19.749Z,4.57
2019-03-10T12:24:49.575Z,4.40
2019-03-10T12:27:19.276Z,3.83
2019-03-10T12:29:49.046Z,4.60
2019-03-10T12:32:18.746Z,4.27
2019-03-10T12:34:48.407Z,3.23
2019-03-10T12:37:18.265Z,3.93
2019-03-10T12:39:47.981Z,4.40
2019-03-10T12:42:17.653Z,4.00
2019-03-10T12:44:48.500Z,3.90
2019-03-10T12:47:18.234Z,3.83
2019-03-10T12:49:47.910Z,3.17
2019-03-10T12:52:17.665Z,3.13
2019-03-10T12:54:47.414Z,3.10
2019-03-10T12:57:17.094Z,2.63
2019-03-10T12:59:46.973Z,3.20
2019-03-10T13:02:16.759Z,2.17
2019-03-10T13:04:46.429Z,2.53
2019-03-10T13:07:16.243Z,2.53
2019-03-10T13:09:46.289Z,3.00
2019-03-10T13:12:15.948Z,2.87
2019-03-10T13:14:45.695Z,3.33
2019-03-10T13:17:15.419Z,3.03
2019-03-10T13:19:45.166Z,3.07
2019-03-10T13:22:14.814Z,3.57
2019-03-10T13:24:44.580Z,3.27
2019-03-10T13:27:14.269Z,3.70
2019-03-10T13:29:44.026Z,4.30
2019-03-10T13:32:13.674Z,3.83
2019-03-10T13:34:43.398Z,3.90
2019-03-10T13:37:13.243Z,2.70
2019-03-10T13:39:43.150Z,2.70
2019-03-10T13:42:13.252Z,2.37
2019-03-10T13:44:43.151Z,9.17
2019-03-10T13:47:12.934Z,2.73
2019-03-10T13:49:42.939Z,2.50
2019-03-10T13:52:12.674Z,1.80
2019-03-10T13:54:42.341Z,1.63
2019-03-10T13:57:12.111Z,2.27
2019-03-10T13:59:41.825Z,2.23
2019-03-10T14:02:11.634Z,2.37
2019-03-10T14:04:41.341Z,2.27
2019-03-10T14:07:11.147Z,2.63
2019-03-10T14:09:40.893Z,2.40
2019-03-10T14:12:10.688Z,2.10
2019-03-10T14:14:40.367Z,1.70
2019-03-10T14:17:10.038Z,4.47
2019-03-10T14:19:39.789Z,13.03
2019-03-10T14:22:09.522Z,5.13
2019-03-10T14:24:39.245Z,16.07
2019-03-10T14:27:09.058Z,3.20
2019-03-10T14:29:38.717Z,5.30
2019-03-10T14:32:08.503Z,2.57
2019-03-10T14:34:38.268Z,1.87
2019-03-10T14:37:08.202Z,1.53
2019-03-10T14:39:38.010Z,1.73
2019-03-10T14:42:07.763Z,2.20
2019-03-10T14:44:37.441Z,2.37
2019-03-10T14:47:07.255Z,2.73
2019-03-10T14:49:37.056Z,2.90
2019-03-10T14:52:06.889Z,2.20
2019-03-10T14:54:36.550Z,2.50
2019-03-10T14:57:06.375Z,2.67
2019-03-10T14:59:36.145Z,2.00
2019-03-10T15:02:06.062Z,2.53
2019-03-10T15:04:35.800Z,2.53
2019-03-10T15:07:05.632Z,2.87
2019-03-10T15:09:35.335Z,3.10
2019-03-10T15:12:05.216Z,2.83
2019-03-10T15:14:34.947Z,2.60
2019-03-10T15:17:04.680Z,2.53
2019-03-10T15:19:34.399Z,2.30
2019-03-10T15:22:04.479Z,2.50
2019-03-10T15:24:34.154Z,2.33
2019-03-10T15:27:03.781Z,2.43
2019-03-10T15:29:32.456Z,1.57
2019-03-10T15:32:02.134Z,1.50
2019-03-10T15:34:31.823Z,1.93
2019-03-10T15:37:01.560Z,2.33
2019-03-10T15:39:31.299Z,1.93
2019-03-10T15:42:00.975Z,2.70
2019-03-10T15:44:30.749Z,2.27
2019-03-10T15:47:00.462Z,1.80
2019-03-10T15:49:30.192Z,1.90
2019-03-10T15:51:59.859Z,2.27
2019-03-10T15:54:29.595Z,2.57
2019-03-10T15:56:59.435Z,2.10
2019-03-10T15:59:29.110Z,1.90
2019-03-10T16:01:58.809Z,1.13
2019-03-10T16:04:28.570Z,1.40
2019-03-10T16:06:59.237Z,1.43
2019-03-10T16:09:28.947Z,1.50
2019-03-10T16:11:58.793Z,1.10
2019-03-10T16:14:28.443Z,0.60
2019-03-10T16:16:58.144Z,0.60
2019-03-10T16:19:27.843Z,1.30
2019-03-10T16:21:57.612Z,0.90
2019-03-10T16:24:27.315Z,0.90
2019-03-10T16:26:57.064Z,1.10
2019-03-10T16:29:26.735Z,0.90
2019-03-10T16:31:56.508Z,0.70
2019-03-10T16:34:26.175Z,1.00
2019-03-10T16:36:55.901Z,0.90
2019-03-10T16:39:25.732Z,0.90
2019-03-10T16:41:55.439Z,1.00
2019-03-10T16:44:25.199Z,0.60
2019-03-10T16:46:54.912Z,0.80
2019-03-10T16:49:24.634Z,1.10
2019-03-10T16:51:54.400Z,0.93
2019-03-10T16:54:24.153Z,0.80
2019-03-10T16:56:53.903Z,0.90
2019-03-10T16:59:23.630Z,0.90
2019-03-10T17:01:53.415Z,1.67
2019-03-10T17:04:23.044Z,1.00
2019-03-10T17:06:52.755Z,0.90
2019-03-10T17:09:22.615Z,1.70
2019-03-10T17:11:52.547Z,0.90
2019-03-10T17:14:22.682Z,9.10
2019-03-10T17:16:52.679Z,3.17
2019-03-10T17:19:22.323Z,2.20
2019-03-10T17:21:52.096Z,4.80
2019-03-10T17:24:21.834Z,2.23
2019-03-10T17:26:51.515Z,2.40
2019-03-10T17:29:21.500Z,4.63
2019-03-10T17:31:51.189Z,6.23
2019-03-10T17:34:20.870Z,6.90
2019-03-10T17:36:50.580Z,8.40
2019-03-10T17:39:20.259Z,8.30
2019-03-10T17:41:50.188Z,4.67
2019-03-10T17:44:19.965Z,9.80
2019-03-10T17:46:49.727Z,13.43
2019-03-10T17:49:19.415Z,11.37
2019-03-10T17:51:49.142Z,6.40
2019-03-10T17:54:19.088Z,3.90
2019-03-10T17:56:48.753Z,3.53
2019-03-10T17:59:18.535Z,2.83
2019-03-10T18:01:48.350Z,2.97
2019-03-10T18:04:18.099Z,4.63
2019-03-10T18:06:47.775Z,3.77
2019-03-10T18:09:17.509Z,3.13
2019-03-10T18:11:47.223Z,3.83
2019-03-10T18:14:16.991Z,6.97
2019-03-10T18:16:46.781Z,5.63
2019-03-10T18:19:16.541Z,5.90
2019-03-10T18:21:46.621Z,8.40
2019-03-10T18:24:16.529Z,7.00
2019-03-10T18:26:46.225Z,2.17
2019-03-10T18:29:16.012Z,1.70
2019-03-10T18:31:45.757Z,2.33
2019-03-10T18:34:15.436Z,3.37
2019-03-10T18:36:45.165Z,7.00
2019-03-10T18:39:14.826Z,3.00
2019-03-10T18:41:44.552Z,3.27
2019-03-10T18:44:14.207Z,1.77
2019-03-10T18:46:43.873Z,1.90
2019-03-10T18:49:13.611Z,1.57
2019-03-10T18:51:43.333Z,2.00
2019-03-10T18:54:13.274Z,1.90
2019-03-10T18:56:43.028Z,1.77
2019-03-10T18:59:12.761Z,1.83
2019-03-10T19:01:42.395Z,1.50
2019-03-10T19:04:12.214Z,1.50
2019-03-10T19:06:41.962Z,1.60
2019-03-10T19:09:11.827Z,1.73
2019-03-10T19:11:41.604Z,1.57
2019-03-10T19:14:11.264Z,1.63
2019-03-10T19:16:41.004Z,1.50
2019-03-10T19:19:11.045Z,1.30
2019-03-10T19:21:40.860Z,2.00
2019-03-10T19:24:10.548Z,1.50
2019-03-10T19:26:40.229Z,1.40
2019-03-10T19:29:09.953Z,2.07
2019-03-10T19:31:39.660Z,1.80
2019-03-10T19:34:09.336Z,1.60
2019-03-10T19:36:39.161Z,1.30
2019-03-10T19:39:08.947Z,1.90
2019-03-10T19:41:38.720Z,2.30
2019-03-10T19:44:08.493Z,2.00
2019-03-10T19:46:38.248Z,1.90
2019-03-10T19:49:07.895Z,1.60
2019-03-10T19:51:37.670Z,1.60
2019-03-10T19:54:07.319Z,1.10
2019-03-10T19:56:37.002Z,1.90
2019-03-10T19:59:06.796Z,2.73
2019-03-10T20:01:36.506Z,21.47
2019-03-10T20:04:06.222Z,17.30
2019-03-10T20:06:35.904Z,21.57
2019-03-10T20:09:07.459Z,13.60
2019-03-10T20:11:37.247Z,4.13
2019-03-10T20:14:07.372Z,4.07
2019-03-10T20:16:37.051Z,9.73
2019-03-10T20:19:06.763Z,7.43
2019-03-10T20:21:36.494Z,2.00
2019-03-10T20:24:06.496Z,2.90
2019-03-10T20:26:36.166Z,5.70
2019-03-10T20:29:06.083Z,9.53
2019-03-10T20:31:35.827Z,10.77
2019-03-10T20:34:05.761Z,11.30
2019-03-10T20:36:35.715Z,8.90
2019-03-10T20:39:07.381Z,3.93
2019-03-10T20:41:37.050Z,1.70
2019-03-10T20:44:06.724Z,1.40
2019-03-10T20:46:36.437Z,1.67
2019-03-10T20:49:06.178Z,1.63
2019-03-10T20:51:35.887Z,1.80
2019-03-10T20:54:05.672Z,1.40
2019-03-10T20:56:35.368Z,1.50
2019-03-10T20:59:05.168Z,1.77
2019-03-10T21:01:34.839Z,2.03
2019-03-10T21:04:04.596Z,2.10
2019-03-10T21:06:34.276Z,3.00
2019-03-10T21:09:04.785Z,3.77
2019-03-10T21:11:34.704Z,4.57
2019-03-10T21:14:04.619Z,4.37
2019-03-10T21:16:34.321Z,3.73
2019-03-10T21:19:04.020Z,3.30
2019-03-10T21:21:33.802Z,3.10
2019-03-10T21:24:03.463Z,3.30
2019-03-10T21:26:34.659Z,2.80
2019-03-10T21:29:04.485Z,3.13
2019-03-10T21:31:34.220Z,3.13
2019-03-10T21:34:03.949Z,3.57
2019-03-10T21:36:33.697Z,3.77
2019-03-10T21:39:04.724Z,4.17
2019-03-10T21:41:35.614Z,4.13
2019-03-10T21:44:05.518Z,4.37
2019-03-10T21:46:35.386Z,4.80
2019-03-10T21:49:05.114Z,5.50
2019-03-10T21:51:34.922Z,4.87
2019-03-10T21:54:04.630Z,5.17
2019-03-10T21:56:34.402Z,4.43
2019-03-10T21:59:04.086Z,5.20
2019-03-10T22:01:33.834Z,4.90
2019-03-10T22:04:03.589Z,4.23
2019-03-10T22:06:33.389Z,4.13
2019-03-10T22:09:04.945Z,3.63
2019-03-10T22:11:36.158Z,5.17
2019-03-10T22:14:06.563Z,5.00
2019-03-10T22:16:36.287Z,4.97
2019-03-10T22:19:05.986Z,4.57
2019-03-10T22:21:35.713Z,3.57
2019-03-10T22:24:05.498Z,2.50
2019-03-10T22:26:35.225Z,2.93
2019-03-10T22:29:04.953Z,2.47
2019-03-10T22:31:34.737Z,2.50
2019-03-10T22:34:04.547Z,2.23
2019-03-10T22:36:34.387Z,2.50
2019-03-10T22:39:04.876Z,2.37
2019-03-10T22:41:34.565Z,2.60
2019-03-10T22:44:04.289Z,3.07
2019-03-10T22:46:34.154Z,2.70
2019-03-10T22:49:03.836Z,3.17
2019-03-10T22:51:33.579Z,3.77
2019-03-10T22:54:03.306Z,4.00
2019-03-10T22:56:33.017Z,5.30
2019-03-10T22:59:02.745Z,5.27
2019-03-10T23:01:32.560Z,5.57
2019-03-10T23:04:02.402Z,5.77
2019-03-10T23:06:32.181Z,5.33
2019-03-10T23:09:02.007Z,4.40
2019-03-10T23:11:31.712Z,3.30
2019-03-10T23:14:01.673Z,2.70
2019-03-10T23:16:31.380Z,2.60
2019-03-10T23:19:01.131Z,2.53
2019-03-10T23:21:30.847Z,2.50
2019-03-10T23:24:00.657Z,2.50
2019-03-10T23:26:30.411Z,3.30
2019-03-10T23:29:00.114Z,2.77
2019-03-10T23:31:29.770Z,3.03
2019-03-10T23:33:59.603Z,3.63
2019-03-10T23:36:29.452Z,3.60
2019-03-10T23:38:59.311Z,7.37
2019-03-10T23:41:29.277Z,11.67
2019-03-10T23:43:58.976Z,6.90
2019-03-10T23:46:28.705Z,3.70
2019-03-10T23:48:58.374Z,2.50
2019-03-10T23:51:28.035Z,2.13
2019-03-10T23:53:57.775Z,2.10
2019-03-10T23:56:27.499Z,1.53
2019-03-10T23:58:57.352Z,1.97
